メインページ
METAR-TAF:

METAR-TAF

空港 :

リガ, ラトビア

リガ国際空港

緯度: 56-55N, 経度: 023-58E, 海抜: 10m

現時点の気象観測

当レポートは29分前の22:50(UTC)に作成
西/南西の風 4kt、南/南西から西の間で変化する
気温 12°C
湿度 76%
気圧 1018 hPa
視程10km以上
1,500メートル以下は雲なし、積乱雲なし

METAR: EVRA 272250Z 24004KT 210V280 CAVOK 12/08 Q1018 NOSIG

時間: 02:19 (23:19 UTC)

予報

当レポートは3時間16分前の20:03(UTC)に作成
予報は27日の 21時(UTC)から 28日の 21時(UTC)まで有効
西/南西の風 7kt
視程10km以上
1,500メートル以下は雲なし、積乱雲なし
27日の 22時(UTC)から 27日の 24時(UTC)まで徐々に
変向風 2kt
28日の 00時(UTC)から 28日の 04時(UTC)まで一時的に
視程: 3000m
28日の 07時(UTC)から 28日の 09時(UTC)まで徐々に
南西の風 9kt
28日の 09時(UTC)から 28日の 18時(UTC)まで一時的に
西/南西の風 14kt、最大27ktの突風を伴う

TAF: EVRA 272003Z 2721/2821 24007KT CAVOK BECMG 2722/2724 VRB02KT TEMPO 2800/2804 3000 BR BECMG 2807/2809 23009KT TEMPO 2809/2818 24014G27KT

4,000以上の空港の気象観測と天気予報(METAR報とTAF報)

利用可能な観測所は地図上に黄色い丸と赤い丸で示す。

丸の上にカーソルを重ねると観測所名を参照できる。

次にクリックすると気象観測と天気予報を参照できる。

マップの切り替え:黒色「×」印の緑ボタンをクリックして拡大、「-」印の緑ボタンをクリックして縮小、緑色の三角印をクリックして隣りの地図に切り替え


METAR-TAF: